Airport Name : Ile Des Pins

Other Name : Ile Des Pins

ICAO : NWWE

IATA : ILP

FAA :

Latitude : -22.588856

Longitude : 167.455969

Country : New Caledonia

Local Date and Time : 29 Oct 2020 07:08

 

TAF (Terminal Aerodrome Forecast)

TAF NWWE 281700Z 2818/2918 08012KT 9999 SCT020 BKN030 TEMPO 2822/2906 08015G25KT

 

METAR (METeorological Aerodrome Report)

To Charter a Jet Click here.